Terminal Aerodrome Forecast
Issued by NWS

Home | Current Version | Previous Version | Text Only | Print | Product List | Glossary On
Versions: 1 2 3 4 5 6 7 8 9 10 11 12 13 14 15 16 17 18 19 20 21 22 23 24 25
000
FTUS45 KFGZ 030300 AAA
TAFSEZ
TAF AMD
KSEZ 030317Z 0303/0324 VRB06KT P6SM BKN008
      TEMPO 0304/0307 5SM -SHRA BR OVC007
     FM030900 VRB06KT P6SM VCFG BKN007
     FM031600 VRB06KT P6SM SCT020 BKN035 PROB30 0318/0324 4SM -SHRA
      SCT015 BKN025=

USA.gov is the U.S. government's official web portal to all federal, state and local government web resources and services.